Time;durP1;ratioP1;P1;durP2;ratioP2;P2;SDS_P1;SDS_P2;PMS_P1;PMS_P2;Temp;Humidity;BMP_temperature;BMP_pressure;BME280_temperature;BME280_humidity;BME280_pressure;Samples;Min_cycle;Max_cycle;Signal;HPM_P1;HPM_P2
2020/03/19 00:02:40;;;;;;;2.50;2.30;;;;;;;20.10;41.46;101458.64;;;;-52
2020/03/19 00:05:43;;;;;;;2.89;2.69;;;;;;;20.09;41.45;101460.42;;;;-51
2020/03/19 00:08:40;;;;;;;2.85;2.61;;;;;;;20.08;41.49;101456.23;;;;-52
2020/03/19 00:11:40;;;;;;;2.72;2.52;;;;;;;20.06;41.50;101452.88;;;;-52
2020/03/19 00:14:40;;;;;;;2.81;2.61;;;;;;;20.04;41.57;101450.59;;;;-51
2020/03/19 00:17:40;;;;;;;3.18;2.75;;;;;;;20.04;41.49;101454.27;;;;-51
2020/03/19 00:20:40;;;;;;;3.33;2.75;;;;;;;20.02;41.49;101448.28;;;;-52
2020/03/19 00:23:40;;;;;;;3.36;2.75;;;;;;;20.01;41.47;101443.97;;;;-52
2020/03/19 00:29:40;;;;;;;2.83;2.57;;;;;;;19.99;41.47;101436.03;;;;-51
2020/03/19 00:32:40;;;;;;;2.93;2.51;;;;;;;19.98;41.51;101434.66;;;;-52
2020/03/19 00:35:40;;;;;;;3.19;2.68;;;;;;;19.96;41.50;101435.03;;;;-51
2020/03/19 00:38:40;;;;;;;3.01;2.73;;;;;;;19.95;41.57;101430.78;;;;-52
2020/03/19 00:41:40;;;;;;;3.03;2.77;;;;;;;19.94;41.47;101431.23;;;;-52
2020/03/19 00:44:40;;;;;;;2.69;2.49;;;;;;;19.94;41.54;101428.83;;;;-52
2020/03/19 00:47:40;;;;;;;2.79;2.59;;;;;;;19.92;41.54;101427.71;;;;-52
2020/03/19 00:50:40;;;;;;;2.63;2.43;;;;;;;19.91;41.52;101424.58;;;;-52
2020/03/19 00:53:40;;;;;;;2.85;2.63;;;;;;;19.89;41.55;101425.19;;;;-51
2020/03/19 00:56:40;;;;;;;2.91;2.69;;;;;;;19.88;41.57;101422.55;;;;-52
2020/03/19 00:59:40;;;;;;;2.79;2.59;;;;;;;19.87;41.61;101418.30;;;;-52
2020/03/19 01:02:40;;;;;;;2.69;2.49;;;;;;;19.86;41.58;101415.34;;;;-52
2020/03/19 01:05:40;;;;;;;2.71;2.51;;;;;;;19.86;41.63;101411.20;;;;-51
2020/03/19 01:08:40;;;;;;;2.73;2.53;;;;;;;19.84;41.61;101412.49;;;;-51
2020/03/19 01:11:40;;;;;;;2.93;2.63;;;;;;;19.84;41.57;101411.77;;;;-53
2020/03/19 01:14:40;;;;;;;2.88;2.67;;;;;;;19.82;41.60;101416.34;;;;-54
2020/03/19 01:17:40;;;;;;;3.03;2.54;;;;;;;19.81;41.59;101412.19;;;;-53
2020/03/19 01:20:40;;;;;;;2.87;2.62;;;;;;;19.81;41.62;101413.02;;;;-54
2020/03/19 01:23:40;;;;;;;2.75;2.55;;;;;;;19.80;41.57;101412.97;;;;-53
2020/03/19 01:26:40;;;;;;;2.81;2.61;;;;;;;19.78;41.60;101409.56;;;;-53
2020/03/19 01:29:40;;;;;;;2.84;2.63;;;;;;;19.78;41.64;101412.75;;;;-53
2020/03/19 01:32:40;;;;;;;2.69;2.49;;;;;;;19.76;41.65;101406.70;;;;-53
2020/03/19 01:35:40;;;;;;;2.75;2.55;;;;;;;19.75;41.67;101404.52;;;;-53
2020/03/19 01:38:40;;;;;;;3.15;2.85;;;;;;;19.75;41.61;101402.51;;;;-53
2020/03/19 01:41:40;;;;;;;2.90;2.60;;;;;;;19.74;41.62;101400.88;;;;-53
2020/03/19 01:44:40;;;;;;;2.92;2.65;;;;;;;19.72;41.68;101395.80;;;;-53
2020/03/19 01:47:40;;;;;;;2.80;2.60;;;;;;;19.72;41.66;101398.03;;;;-53
2020/03/19 01:50:40;;;;;;;2.77;2.57;;;;;;;19.70;41.69;101392.71;;;;-53
2020/03/19 01:53:40;;;;;;;2.86;2.66;;;;;;;19.70;41.67;101399.03;;;;-53
2020/03/19 01:56:40;;;;;;;2.85;2.65;;;;;;;19.69;41.67;101394.84;;;;-53
2020/03/19 01:59:40;;;;;;;2.94;2.66;;;;;;;19.68;41.66;101393.78;;;;-53
2020/03/19 02:02:40;;;;;;;2.95;2.67;;;;;;;19.67;41.75;101393.49;;;;-54
2020/03/19 02:05:40;;;;;;;2.95;2.62;;;;;;;19.66;41.75;101394.66;;;;-53
2020/03/19 02:08:40;;;;;;;3.03;2.75;;;;;;;19.65;41.76;101394.32;;;;-53
2020/03/19 02:11:40;;;;;;;2.87;2.67;;;;;;;19.64;41.67;101389.57;;;;-53
2020/03/19 02:14:40;;;;;;;3.11;2.81;;;;;;;19.64;41.67;101386.78;;;;-53
2020/03/19 02:17:40;;;;;;;2.54;2.34;;;;;;;19.62;41.78;101386.71;;;;-53
2020/03/19 02:20:40;;;;;;;2.81;2.57;;;;;;;19.61;41.74;101384.47;;;;-53
2020/03/19 02:23:40;;;;;;;2.64;2.44;;;;;;;19.61;41.72;101388.45;;;;-54
2020/03/19 02:26:40;;;;;;;3.06;2.61;;;;;;;19.60;41.72;101390.61;;;;-53
2020/03/19 02:29:40;;;;;;;2.86;2.65;;;;;;;19.59;41.73;101394.13;;;;-54
2020/03/19 02:32:40;;;;;;;2.96;2.66;;;;;;;19.59;41.77;101391.11;;;;-54
2020/03/19 02:35:40;;;;;;;2.91;2.62;;;;;;;19.59;41.75;101401.50;;;;-53
2020/03/19 02:38:40;;;;;;;2.77;2.57;;;;;;;19.57;41.75;101393.61;;;;-54
2020/03/19 02:41:40;;;;;;;2.69;2.49;;;;;;;19.56;41.78;101390.43;;;;-54
2020/03/19 02:44:40;;;;;;;2.87;2.67;;;;;;;19.56;41.75;101390.93;;;;-53
2020/03/19 02:47:40;;;;;;;2.76;2.56;;;;;;;19.55;41.72;101392.05;;;;-53
2020/03/19 02:50:40;;;;;;;2.83;2.60;;;;;;;19.53;41.82;101391.54;;;;-53
2020/03/19 02:53:40;;;;;;;2.83;2.63;;;;;;;19.53;41.80;101393.05;;;;-54
2020/03/19 02:56:40;;;;;;;3.07;2.78;;;;;;;19.53;41.75;101390.08;;;;-53
2020/03/19 02:59:40;;;;;;;2.88;2.61;;;;;;;19.52;41.76;101394.55;;;;-53
2020/03/19 03:02:40;;;;;;;2.89;2.67;;;;;;;19.51;41.75;101396.88;;;;-53
2020/03/19 03:05:40;;;;;;;2.61;2.41;;;;;;;19.50;41.73;101394.48;;;;-53
2020/03/19 03:08:40;;;;;;;3.27;2.67;;;;;;;19.50;41.76;101392.36;;;;-53
2020/03/19 03:11:40;;;;;;;3.06;2.76;;;;;;;19.49;41.74;101388.67;;;;-53
2020/03/19 03:14:40;;;;;;;2.82;2.62;;;;;;;19.48;41.75;101392.30;;;;-53
2020/03/19 03:17:40;;;;;;;2.79;2.59;;;;;;;19.47;41.72;101388.67;;;;-53
2020/03/19 03:20:40;;;;;;;3.04;2.77;;;;;;;19.46;41.75;101391.39;;;;-53
2020/03/19 03:23:40;;;;;;;2.99;2.70;;;;;;;19.46;41.73;101391.80;;;;-53
2020/03/19 03:26:40;;;;;;;2.77;2.57;;;;;;;19.46;41.73;101386.59;;;;-54
2020/03/19 03:29:40;;;;;;;3.07;2.77;;;;;;;19.45;41.76;101384.52;;;;-53
2020/03/19 03:32:40;;;;;;;3.19;2.71;;;;;;;19.44;41.75;101387.83;;;;-53
2020/03/19 03:35:40;;;;;;;3.42;2.69;;;;;;;19.44;41.77;101391.22;;;;-54
2020/03/19 03:38:40;;;;;;;2.73;2.45;;;;;;;19.43;41.77;101390.49;;;;-53
2020/03/19 03:41:42;;;;;;;2.75;2.55;;;;;;;19.43;41.78;101386.81;;;;-53
2020/03/19 03:44:40;;;;;;;2.81;2.61;;;;;;;19.40;41.70;101382.09;;;;-53
2020/03/19 03:47:40;;;;;;;3.09;2.70;;;;;;;19.40;41.81;101381.76;;;;-53
2020/03/19 03:50:40;;;;;;;3.09;2.79;;;;;;;19.40;41.77;101383.94;;;;-53
2020/03/19 03:53:40;;;;;;;2.83;2.63;;;;;;;19.39;41.77;101380.65;;;;-53
2020/03/19 03:56:40;;;;;;;2.85;2.65;;;;;;;19.38;41.78;101378.29;;;;-54
2020/03/19 03:59:40;;;;;;;2.65;2.45;;;;;;;19.37;41.75;101383.26;;;;-53
2020/03/19 04:02:40;;;;;;;2.97;2.71;;;;;;;19.36;41.78;101387.50;;;;-54
2020/03/19 04:05:40;;;;;;;2.75;2.55;;;;;;;19.36;41.80;101381.47;;;;-54
2020/03/19 04:08:40;;;;;;;2.90;2.70;;;;;;;19.35;41.81;101376.44;;;;-53
2020/03/19 04:11:40;;;;;;;2.60;2.40;;;;;;;19.35;41.83;101379.52;;;;-53
2020/03/19 04:14:40;;;;;;;2.75;2.55;;;;;;;19.35;41.86;101375.98;;;;-53
2020/03/19 04:17:40;;;;;;;2.92;2.67;;;;;;;19.34;41.77;101377.78;;;;-53
2020/03/19 04:20:40;;;;;;;2.89;2.69;;;;;;;19.33;41.81;101375.60;;;;-53
2020/03/19 04:23:40;;;;;;;3.08;2.77;;;;;;;19.32;41.79;101369.10;;;;-53
2020/03/19 04:26:40;;;;;;;2.73;2.53;;;;;;;19.31;41.80;101373.35;;;;-53
2020/03/19 04:29:40;;;;;;;3.09;2.79;;;;;;;19.31;41.85;101380.45;;;;-53
2020/03/19 04:32:40;;;;;;;3.21;2.91;;;;;;;19.31;41.83;101379.50;;;;-53
2020/03/19 04:35:40;;;;;;;2.83;2.63;;;;;;;19.30;41.85;101380.05;;;;-53
2020/03/19 04:38:40;;;;;;;2.70;2.50;;;;;;;19.29;41.79;101383.41;;;;-54
2020/03/19 04:41:40;;;;;;;2.80;2.60;;;;;;;19.29;41.78;101380.66;;;;-53
2020/03/19 04:44:40;;;;;;;2.99;2.75;;;;;;;19.29;41.83;101381.56;;;;-53
2020/03/19 04:47:40;;;;;;;2.90;2.69;;;;;;;19.29;41.83;101382.00;;;;-53
2020/03/19 04:50:40;;;;;;;3.09;2.80;;;;;;;19.30;41.71;101386.64;;;;-53
2020/03/19 04:53:40;;;;;;;2.70;2.50;;;;;;;19.30;41.76;101382.17;;;;-53
2020/03/19 04:56:40;;;;;;;2.91;2.67;;;;;;;19.32;41.76;101385.14;;;;-53
2020/03/19 04:59:40;;;;;;;3.00;2.77;;;;;;;19.35;41.74;101390.72;;;;-53
2020/03/19 05:02:40;;;;;;;3.21;2.63;;;;;;;19.37;41.72;101386.00;;;;-53
2020/03/19 05:05:40;;;;;;;2.69;2.49;;;;;;;19.40;41.71;101384.77;;;;-54
2020/03/19 05:08:40;;;;;;;2.71;2.51;;;;;;;19.44;41.71;101387.83;;;;-53
2020/03/19 05:11:40;;;;;;;3.49;2.61;;;;;;;19.47;41.76;101388.50;;;;-53
2020/03/19 05:14:40;;;;;;;2.62;2.41;;;;;;;19.52;41.78;101388.80;;;;-54
2020/03/19 05:17:40;;;;;;;2.99;2.56;;;;;;;19.56;41.74;101389.04;;;;-54
2020/03/19 05:20:40;;;;;;;2.87;2.63;;;;;;;19.61;41.81;101394.91;;;;-54
2020/03/19 05:23:40;;;;;;;2.63;2.43;;;;;;;19.62;41.78;101389.89;;;;-53
2020/03/19 05:26:40;;;;;;;2.85;2.65;;;;;;;19.66;41.74;101396.16;;;;-53
2020/03/19 05:29:40;;;;;;;2.77;2.57;;;;;;;19.68;41.77;101392.76;;;;-53
2020/03/19 05:32:40;;;;;;;2.72;2.52;;;;;;;19.71;41.85;101384.01;;;;-54
2020/03/19 05:35:40;;;;;;;2.60;2.40;;;;;;;19.75;41.81;101389.14;;;;-53
2020/03/19 05:38:40;;;;;;;2.71;2.51;;;;;;;19.79;41.85;101383.97;;;;-53
2020/03/19 05:41:40;;;;;;;2.70;2.50;;;;;;;19.82;41.88;101378.79;;;;-54
2020/03/19 05:44:40;;;;;;;2.71;2.48;;;;;;;19.86;41.86;101378.84;;;;-54
2020/03/19 05:47:40;;;;;;;2.69;2.49;;;;;;;19.88;41.78;101381.25;;;;-54
2020/03/19 05:50:40;;;;;;;2.83;2.55;;;;;;;19.94;41.81;101381.05;;;;-54
2020/03/19 05:53:40;;;;;;;2.73;2.53;;;;;;;19.95;41.85;101378.66;;;;-54
2020/03/19 05:56:40;;;;;;;2.79;2.59;;;;;;;19.96;41.83;101383.28;;;;-54
2020/03/19 05:59:40;;;;;;;2.79;2.59;;;;;;;19.99;41.88;101384.55;;;;-55
2020/03/19 06:02:40;;;;;;;2.82;2.47;;;;;;;20.00;41.81;101388.41;;;;-54
2020/03/19 06:05:40;;;;;;;2.67;2.47;;;;;;;20.02;41.76;101391.54;;;;-54
2020/03/19 06:08:40;;;;;;;3.01;2.75;;;;;;;20.05;41.78;101395.52;;;;-54
2020/03/19 06:11:40;;;;;;;2.81;2.61;;;;;;;20.07;41.71;101394.13;;;;-54
2020/03/19 06:14:40;;;;;;;2.81;2.57;;;;;;;20.07;41.69;101395.23;;;;-54
2020/03/19 06:17:40;;;;;;;2.73;2.53;;;;;;;20.09;41.66;101398.44;;;;-54
2020/03/19 06:20:40;;;;;;;3.82;2.67;;;;;;;20.10;41.69;101400.11;;;;-53
2020/03/19 06:23:40;;;;;;;3.09;2.71;;;;;;;20.10;41.68;101398.78;;;;-53
2020/03/19 06:26:40;;;;;;;2.87;2.57;;;;;;;20.12;41.65;101396.37;;;;-54
2020/03/19 06:29:40;;;;;;;2.68;2.48;;;;;;;20.15;41.64;101397.89;;;;-53
2020/03/19 06:32:40;;;;;;;2.77;2.55;;;;;;;20.16;41.55;101400.17;;;;-53
2020/03/19 06:35:40;;;;;;;2.79;2.59;;;;;;;20.18;41.66;101395.42;;;;-55
2020/03/19 06:38:40;;;;;;;3.23;2.63;;;;;;;20.19;41.62;101401.19;;;;-54
2020/03/19 06:41:40;;;;;;;2.86;2.59;;;;;;;20.22;41.62;101400.19;;;;-53
2020/03/19 06:44:40;;;;;;;2.91;2.63;;;;;;;20.22;41.61;101400.52;;;;-54
2020/03/19 06:47:40;;;;;;;2.69;2.49;;;;;;;20.25;41.52;101403.27;;;;-54
2020/03/19 06:50:40;;;;;;;2.77;2.57;;;;;;;20.27;41.54;101403.48;;;;-54
2020/03/19 06:53:40;;;;;;;2.71;2.51;;;;;;;20.29;41.50;101404.50;;;;-54
2020/03/19 06:56:40;;;;;;;3.06;2.77;;;;;;;20.30;41.51;101404.89;;;;-53
2020/03/19 06:59:40;;;;;;;2.73;2.53;;;;;;;20.32;41.49;101406.74;;;;-54
2020/03/19 07:02:40;;;;;;;2.75;2.53;;;;;;;20.33;41.47;101404.73;;;;-54
2020/03/19 07:05:40;;;;;;;2.53;2.33;;;;;;;20.34;41.50;101408.24;;;;-54
2020/03/19 07:08:40;;;;;;;2.82;2.62;;;;;;;20.35;41.41;101407.03;;;;-54
2020/03/19 07:11:40;;;;;;;2.71;2.51;;;;;;;20.36;41.42;101406.23;;;;-54
2020/03/19 07:14:40;;;;;;;2.77;2.57;;;;;;;20.39;41.36;101406.68;;;;-54
2020/03/19 07:18:19;;;;;;;2.69;2.49;;;;;;;20.41;41.34;101411.79;;;;-54
2020/03/19 07:20:40;;;;;;;2.68;2.48;;;;;;;20.41;41.31;101410.95;;;;-53
2020/03/19 07:23:40;;;;;;;2.91;2.59;;;;;;;20.42;41.39;101413.45;;;;-53
2020/03/19 07:26:40;;;;;;;2.72;2.52;;;;;;;20.42;41.30;101415.53;;;;-54
2020/03/19 07:29:40;;;;;;;2.99;2.69;;;;;;;20.44;41.36;101418.33;;;;-54
2020/03/19 07:32:40;;;;;;;3.03;2.80;;;;;;;20.44;41.31;101415.07;;;;-54
2020/03/19 07:35:40;;;;;;;3.45;2.83;;;;;;;20.47;41.23;101418.94;;;;-54
2020/03/19 07:38:40;;;;;;;3.07;2.77;;;;;;;20.48;41.24;101417.78;;;;-54
2020/03/19 07:41:40;;;;;;;3.07;2.78;;;;;;;20.48;41.25;101420.11;;;;-54
2020/03/19 07:44:40;;;;;;;3.07;2.73;;;;;;;20.49;41.18;101421.36;;;;-54
2020/03/19 07:47:40;;;;;;;2.72;2.52;;;;;;;20.49;41.19;101417.14;;;;-53
2020/03/19 07:50:40;;;;;;;2.80;2.60;;;;;;;20.51;41.17;101418.11;;;;-53
2020/03/19 07:53:40;;;;;;;2.93;2.65;;;;;;;20.52;41.16;101422.03;;;;-54
2020/03/19 07:56:40;;;;;;;2.69;2.49;;;;;;;20.51;41.16;101419.11;;;;-54
2020/03/19 07:59:39;;;;;;;3.09;2.80;;;;;;;20.51;41.22;101417.09;;;;-53
2020/03/19 08:02:40;;;;;;;2.81;2.61;;;;;;;20.53;41.14;101415.36;;;;-54
2020/03/19 08:05:40;;;;;;;3.19;2.79;;;;;;;20.54;41.12;101419.94;;;;-53
2020/03/19 08:08:40;;;;;;;2.80;2.60;;;;;;;20.55;41.08;101414.26;;;;-53
2020/03/19 08:11:40;;;;;;;2.83;2.59;;;;;;;20.54;41.07;101418.33;;;;-54
2020/03/19 08:14:40;;;;;;;2.90;2.70;;;;;;;20.54;41.10;101420.06;;;;-53
2020/03/19 08:17:40;;;;;;;2.84;2.61;;;;;;;20.53;41.02;101420.68;;;;-54
2020/03/19 08:20:40;;;;;;;2.85;2.64;;;;;;;20.53;41.11;101421.73;;;;-54
2020/03/19 08:23:40;;;;;;;2.89;2.65;;;;;;;20.56;41.01;101427.12;;;;-54
2020/03/19 08:26:40;;;;;;;2.89;2.54;;;;;;;20.55;41.03;101428.34;;;;-53
2020/03/19 08:29:40;;;;;;;2.95;2.65;;;;;;;20.55;40.99;101428.45;;;;-53
2020/03/19 08:32:40;;;;;;;2.85;2.65;;;;;;;20.56;40.97;101428.75;;;;-54
2020/03/19 08:35:40;;;;;;;2.84;2.59;;;;;;;20.57;40.97;101430.64;;;;-54
2020/03/19 08:38:40;;;;;;;3.05;2.69;;;;;;;20.56;41.01;101423.71;;;;-55
2020/03/19 08:41:40;;;;;;;2.82;2.62;;;;;;;20.57;40.97;101427.38;;;;-54
2020/03/19 08:44:40;;;;;;;2.66;2.46;;;;;;;20.56;40.96;101427.67;;;;-54
2020/03/19 08:47:40;;;;;;;2.89;2.69;;;;;;;20.57;40.99;101423.02;;;;-54
2020/03/19 08:50:40;;;;;;;2.77;2.57;;;;;;;20.56;41.00;101420.95;;;;-52
2020/03/19 08:53:40;;;;;;;4.69;2.69;;;;;;;20.58;41.53;101421.46;;;;-53
2020/03/19 08:56:40;;;;;;;3.07;2.77;;;;;;;20.60;41.85;101421.30;;;;-51
2020/03/19 08:59:40;;;;;;;2.93;2.61;;;;;;;20.61;41.77;101424.48;;;;-60
2020/03/19 09:02:40;;;;;;;3.99;2.70;;;;;;;20.63;41.98;101423.64;;;;-61
2020/03/19 09:05:40;;;;;;;2.90;2.64;;;;;;;20.66;42.01;101424.75;;;;-46
2020/03/19 09:08:40;;;;;;;4.06;2.68;;;;;;;20.68;41.79;101423.42;;;;-55
2020/03/19 09:11:40;;;;;;;3.40;2.50;;;;;;;20.67;41.65;101417.99;;;;-50
2020/03/19 09:14:40;;;;;;;3.07;2.77;;;;;;;20.69;41.86;101419.89;;;;-52
2020/03/19 09:17:40;;;;;;;2.90;2.70;;;;;;;20.70;41.69;101422.02;;;;-52
2020/03/19 09:20:39;;;;;;;3.47;2.61;;;;;;;20.70;42.27;101419.62;;;;-57
2020/03/19 09:23:40;;;;;;;3.24;2.74;;;;;;;20.72;41.90;101420.45;;;;-52
2020/03/19 09:26:40;;;;;;;2.77;2.49;;;;;;;20.72;41.83;101417.20;;;;-61
2020/03/19 09:29:40;;;;;;;2.97;2.72;;;;;;;20.74;42.23;101415.76;;;;-51
2020/03/19 09:32:40;;;;;;;2.87;2.61;;;;;;;20.76;42.16;101415.14;;;;-47
2020/03/19 09:35:40;;;;;;;3.30;2.51;;;;;;;20.77;41.66;101416.02;;;;-48
2020/03/19 09:38:40;;;;;;;5.79;2.77;;;;;;;20.77;41.73;101411.83;;;;-51
2020/03/19 09:41:40;;;;;;;5.30;2.63;;;;;;;20.76;41.44;101413.45;;;;-52
2020/03/19 09:44:40;;;;;;;3.48;2.79;;;;;;;20.76;41.59;101415.30;;;;-48
2020/03/19 09:47:40;;;;;;;5.05;2.64;;;;;;;20.75;41.71;101411.78;;;;-49
2020/03/19 09:50:40;;;;;;;3.27;2.81;;;;;;;20.74;41.67;101413.34;;;;-56
2020/03/19 09:53:40;;;;;;;3.18;2.87;;;;;;;20.74;41.41;101412.06;;;;-54
2020/03/19 09:56:40;;;;;;;3.07;2.75;;;;;;;20.74;41.36;101405.19;;;;-59
2020/03/19 09:59:39;;;;;;;2.82;2.62;;;;;;;20.74;41.44;101405.19;;;;-54
2020/03/19 10:02:40;;;;;;;3.01;2.69;;;;;;;20.73;41.42;101401.98;;;;-53
2020/03/19 10:05:40;;;;;;;3.33;3.01;;;;;;;20.73;41.25;101394.42;;;;-57
2020/03/19 10:08:40;;;;;;;3.65;2.83;;;;;;;20.74;41.09;101394.04;;;;-55
2020/03/19 10:11:40;;;;;;;3.22;2.85;;;;;;;20.75;41.20;101392.41;;;;-58
2020/03/19 10:14:40;;;;;;;3.46;2.88;;;;;;;20.74;40.98;101389.61;;;;-54
2020/03/19 10:17:39;;;;;;;3.54;2.87;;;;;;;20.75;41.47;101390.51;;;;-56
2020/03/19 10:20:40;;;;;;;3.11;2.75;;;;;;;20.77;41.51;101390.58;;;;-56
2020/03/19 10:23:40;;;;;;;3.33;2.73;;;;;;;20.78;41.97;101390.34;;;;-53
2020/03/19 10:26:40;;;;;;;3.54;2.86;;;;;;;20.77;41.53;101386.48;;;;-53
2020/03/19 10:29:40;;;;;;;13.13;2.91;;;;;;;20.76;41.59;101381.50;;;;-58
2020/03/19 10:32:40;;;;;;;8.70;4.93;;;;;;;20.60;41.69;101381.73;;;;-53
2020/03/19 10:35:40;;;;;;;6.56;5.47;;;;;;;20.48;42.02;101383.70;;;;-58
2020/03/19 10:38:40;;;;;;;8.42;5.53;;;;;;;20.41;42.10;101378.23;;;;-57
2020/03/19 10:41:40;;;;;;;6.45;5.20;;;;;;;20.36;41.80;101373.47;;;;-56
2020/03/19 10:44:40;;;;;;;7.74;5.13;;;;;;;20.42;42.20;101371.63;;;;-60
2020/03/19 10:47:40;;;;;;;9.97;4.65;;;;;;;20.48;42.36;101368.16;;;;-56
2020/03/19 10:50:40;;;;;;;11.18;3.94;;;;;;;20.51;42.07;101359.02;;;;-57
2020/03/19 10:53:40;;;;;;;6.26;3.81;;;;;;;20.54;42.01;101355.83;;;;-58
2020/03/19 10:56:40;;;;;;;4.55;3.36;;;;;;;20.57;42.04;101354.67;;;;-54
2020/03/19 10:59:40;;;;;;;7.17;3.42;;;;;;;20.59;41.91;101349.79;;;;-63
2020/03/19 11:02:40;;;;;;;4.81;3.39;;;;;;;20.61;42.03;101344.14;;;;-65
2020/03/19 11:05:40;;;;;;;4.18;3.13;;;;;;;20.62;41.94;101338.83;;;;-64
2020/03/19 11:08:40;;;;;;;5.79;3.20;;;;;;;20.62;42.02;101337.09;;;;-56
2020/03/19 11:11:40;;;;;;;4.71;2.96;;;;;;;20.63;42.05;101333.86;;;;-57
2020/03/19 11:14:39;;;;;;;4.59;2.73;;;;;;;20.63;41.95;101334.97;;;;-56
2020/03/19 11:17:39;;;;;;;6.36;2.91;;;;;;;20.65;41.93;101330.09;;;;-57
2020/03/19 11:20:40;;;;;;;3.69;2.79;;;;;;;20.64;41.87;101326.19;;;;-56
2020/03/19 11:23:40;;;;;;;4.62;2.90;;;;;;;20.65;42.04;101320.98;;;;-60
2020/03/19 11:26:40;;;;;;;3.99;2.98;;;;;;;20.63;41.86;101317.50;;;;-66
2020/03/19 11:29:40;;;;;;;3.15;2.81;;;;;;;20.66;41.93;101319.34;;;;-58
2020/03/19 11:32:40;;;;;;;5.24;2.85;;;;;;;20.65;41.72;101314.83;;;;-60
2020/03/19 11:35:40;;;;;;;4.67;2.81;;;;;;;20.63;41.54;101311.02;;;;-59
2020/03/19 11:38:40;;;;;;;6.33;3.01;;;;;;;20.62;41.71;101303.36;;;;-57
2020/03/19 11:41:40;;;;;;;5.05;2.73;;;;;;;20.59;41.49;101305.48;;;;-57
2020/03/19 11:44:40;;;;;;;4.31;2.77;;;;;;;20.58;41.47;101295.19;;;;-57
2020/03/19 11:47:40;;;;;;;5.01;2.59;;;;;;;20.56;41.42;101294.75;;;;-57
2020/03/19 11:50:40;;;;;;;3.43;2.67;;;;;;;20.55;41.40;101294.27;;;;-58
2020/03/19 11:53:40;;;;;;;2.92;2.59;;;;;;;20.54;41.33;101284.47;;;;-58
2020/03/19 11:56:39;;;;;;;3.09;2.51;;;;;;;20.53;41.36;101284.25;;;;-57
2020/03/19 11:59:40;;;;;;;3.03;2.67;;;;;;;20.51;41.29;101272.60;;;;-57
2020/03/19 12:02:40;;;;;;;4.32;2.76;;;;;;;20.50;41.32;101270.05;;;;-58
2020/03/19 12:05:40;;;;;;;3.10;2.78;;;;;;;20.49;41.31;101265.06;;;;-57
2020/03/19 12:08:40;;;;;;;4.03;2.59;;;;;;;20.47;41.30;101262.16;;;;-58
2020/03/19 12:11:40;;;;;;;3.49;2.67;;;;;;;20.47;41.32;101257.75;;;;-57
2020/03/19 12:14:40;;;;;;;4.26;2.73;;;;;;;20.45;41.30;101252.94;;;;-51
2020/03/19 12:17:40;;;;;;;3.07;2.58;;;;;;;20.44;41.29;101250.54;;;;-51
2020/03/19 12:20:40;;;;;;;3.37;2.49;;;;;;;20.42;41.29;101253.05;;;;-51
2020/03/19 12:23:40;;;;;;;4.05;2.46;;;;;;;20.40;41.28;101249.26;;;;-50
2020/03/19 12:26:40;;;;;;;2.61;2.41;;;;;;;20.39;41.30;101248.64;;;;-46
2020/03/19 12:29:40;;;;;;;2.77;2.53;;;;;;;20.38;41.27;101242.37;;;;-46
2020/03/19 12:32:40;;;;;;;2.99;2.53;;;;;;;20.36;41.30;101242.16;;;;-47
2020/03/19 12:35:40;;;;;;;3.29;2.29;;;;;;;20.35;41.32;101233.98;;;;-46
2020/03/19 12:38:40;;;;;;;2.84;2.56;;;;;;;20.34;41.28;101233.84;;;;-45
2020/03/19 12:41:40;;;;;;;3.01;2.37;;;;;;;20.33;41.29;101222.53;;;;-47
2020/03/19 12:44:40;;;;;;;2.66;2.44;;;;;;;20.32;41.28;101221.83;;;;-46
2020/03/19 12:47:40;;;;;;;2.85;2.38;;;;;;;20.31;41.30;101217.96;;;;-46
2020/03/19 12:50:40;;;;;;;2.59;2.29;;;;;;;20.30;41.30;101220.09;;;;-46
2020/03/19 12:53:41;;;;;;;2.77;2.42;;;;;;;20.29;41.49;101211.36;;;;-51
2020/03/19 12:56:40;;;;;;;2.56;2.33;;;;;;;20.30;41.60;101215.22;;;;-51
2020/03/19 12:59:41;;;;;;;5.11;2.39;;;;;;;20.29;41.46;101211.53;;;;-48
2020/03/19 13:02:40;;;;;;;4.95;2.47;;;;;;;20.28;41.42;101206.61;;;;-52
2020/03/19 13:05:40;;;;;;;2.64;2.39;;;;;;;20.28;41.72;101203.72;;;;-52
2020/03/19 13:08:40;;;;;;;3.47;2.51;;;;;;;20.28;41.84;101200.00;;;;-52
2020/03/19 13:11:40;;;;;;;3.76;2.37;;;;;;;20.28;41.79;101193.02;;;;-46
2020/03/19 13:14:39;;;;;;;2.43;2.23;;;;;;;20.27;41.69;101189.28;;;;-46
2020/03/19 13:17:40;;;;;;;4.87;2.63;;;;;;;20.26;41.59;101191.57;;;;-46
2020/03/19 13:20:40;;;;;;;2.59;2.30;;;;;;;20.24;41.65;101185.03;;;;-46
2020/03/19 13:23:40;;;;;;;3.18;2.41;;;;;;;20.23;41.63;101180.52;;;;-46
2020/03/19 13:26:40;;;;;;;3.04;2.32;;;;;;;20.23;41.68;101171.69;;;;-48
2020/03/19 13:29:40;;;;;;;3.66;2.42;;;;;;;20.23;41.60;101173.36;;;;-47
2020/03/19 13:32:40;;;;;;;2.58;2.25;;;;;;;20.21;41.55;101169.94;;;;-47
2020/03/19 13:35:39;;;;;;;4.03;2.53;;;;;;;20.21;41.62;101171.67;;;;-47
2020/03/19 13:38:40;;;;;;;2.65;2.36;;;;;;;20.21;41.74;101164.97;;;;-47
2020/03/19 13:41:40;;;;;;;2.68;2.45;;;;;;;20.20;41.93;101165.08;;;;-50
2020/03/19 13:44:40;;;;;;;3.01;2.51;;;;;;;20.19;42.08;101157.93;;;;-49
2020/03/19 13:47:39;;;;;;;5.15;2.75;;;;;;;20.20;42.09;101162.07;;;;-58
2020/03/19 13:50:41;;;;;;;2.99;2.38;;;;;;;20.20;42.20;101158.82;;;;-51
2020/03/19 13:53:40;;;;;;;2.95;2.29;;;;;;;20.21;42.20;101156.59;;;;-50
2020/03/19 13:56:45;;;;;;;3.67;2.50;;;;;;;20.20;42.25;101153.95;;;;-53
2020/03/19 13:59:40;;;;;;;3.64;2.22;;;;;;;20.21;42.22;101152.06;;;;-49
2020/03/19 14:02:40;;;;;;;2.67;2.21;;;;;;;20.20;42.15;101139.87;;;;-61
2020/03/19 14:05:39;;;;;;;3.50;2.17;;;;;;;20.20;42.25;101140.93;;;;-58
2020/03/19 14:08:40;;;;;;;2.97;2.33;;;;;;;20.20;42.17;101139.92;;;;-62
2020/03/19 14:11:40;;;;;;;2.95;2.40;;;;;;;20.20;42.16;101144.69;;;;-60
2020/03/19 14:14:40;;;;;;;2.49;2.29;;;;;;;20.20;42.23;101138.92;;;;-61
2020/03/19 14:17:40;;;;;;;3.04;2.33;;;;;;;20.19;42.28;101140.38;;;;-56
2020/03/19 14:20:40;;;;;;;4.33;2.27;;;;;;;20.20;42.28;101136.97;;;;-59
2020/03/19 14:23:41;;;;;;;2.43;2.23;;;;;;;20.21;42.34;101130.82;;;;-57
2020/03/19 14:26:39;;;;;;;2.57;2.21;;;;;;;20.19;42.16;101124.84;;;;-57
2020/03/19 14:29:40;;;;;;;2.68;2.24;;;;;;;20.17;42.22;101127.47;;;;-57
2020/03/19 14:32:40;;;;;;;2.77;2.11;;;;;;;20.16;42.13;101129.83;;;;-57
2020/03/19 14:35:39;;;;;;;3.54;2.27;;;;;;;20.14;42.08;101127.65;;;;-57
2020/03/19 14:38:40;;;;;;;2.65;2.28;;;;;;;20.14;42.05;101121.44;;;;-58
2020/03/19 14:41:40;;;;;;;3.36;2.15;;;;;;;20.12;41.94;101119.16;;;;-58
2020/03/19 14:44:39;;;;;;;5.19;2.29;;;;;;;20.12;42.13;101116.80;;;;-59
2020/03/19 14:47:40;;;;;;;4.79;2.40;;;;;;;20.10;42.17;101110.39;;;;-59
2020/03/19 14:50:39;;;;;;;4.11;2.27;;;;;;;20.09;42.11;101107.65;;;;-60
2020/03/19 14:53:40;;;;;;;2.79;2.47;;;;;;;20.08;42.18;101103.17;;;;-52
2020/03/19 14:56:40;;;;;;;3.59;2.41;;;;;;;20.06;42.14;101104.35;;;;-57
2020/03/19 14:59:40;;;;;;;3.63;2.25;;;;;;;20.07;42.08;101100.45;;;;-51
2020/03/19 15:02:40;;;;;;;4.05;2.56;;;;;;;20.06;42.10;101102.67;;;;-53
2020/03/19 15:05:40;;;;;;;2.53;2.16;;;;;;;20.06;42.08;101100.72;;;;-58
2020/03/19 15:08:40;;;;;;;3.93;2.43;;;;;;;20.06;42.12;101096.03;;;;-61
2020/03/19 15:11:40;;;;;;;3.67;2.29;;;;;;;20.05;42.23;101092.02;;;;-60
2020/03/19 15:14:39;;;;;;;5.61;2.51;;;;;;;20.06;42.26;101092.34;;;;-64
2020/03/19 15:17:40;;;;;;;2.63;2.43;;;;;;;20.04;42.17;101093.34;;;;-61
2020/03/19 15:20:40;;;;;;;3.52;2.50;;;;;;;20.04;42.09;101083.80;;;;-60
2020/03/19 15:23:40;;;;;;;3.63;2.43;;;;;;;20.03;42.14;101084.98;;;;-60
2020/03/19 15:26:39;;;;;;;3.42;2.43;;;;;;;20.04;42.31;101082.51;;;;-57
2020/03/19 15:29:40;;;;;;;2.64;2.43;;;;;;;20.04;42.40;101082.73;;;;-55
2020/03/19 15:32:40;;;;;;;2.95;2.29;;;;;;;20.03;42.27;101076.48;;;;-52
2020/03/19 15:35:40;;;;;;;2.83;2.29;;;;;;;20.03;42.28;101078.16;;;;-51
2020/03/19 15:38:40;;;;;;;2.57;2.35;;;;;;;20.02;42.25;101079.89;;;;-52
2020/03/19 15:41:39;;;;;;;2.59;2.39;;;;;;;20.02;42.28;101075.38;;;;-51
2020/03/19 15:44:39;;;;;;;2.76;2.35;;;;;;;20.03;42.10;101073.06;;;;-52
2020/03/19 15:47:40;;;;;;;2.90;2.31;;;;;;;20.02;42.18;101077.10;;;;-51
2020/03/19 15:50:40;;;;;;;3.02;2.23;;;;;;;20.00;42.21;101077.33;;;;-51
2020/03/19 15:53:40;;;;;;;3.48;2.29;;;;;;;19.98;42.10;101076.30;;;;-52
2020/03/19 15:56:40;;;;;;;2.39;2.19;;;;;;;19.98;42.17;101074.85;;;;-52
2020/03/19 15:59:40;;;;;;;2.89;2.40;;;;;;;19.95;42.13;101072.84;;;;-52
2020/03/19 16:02:39;;;;;;;3.71;2.51;;;;;;;19.97;42.15;101075.91;;;;-50
2020/03/19 16:05:40;;;;;;;3.28;2.51;;;;;;;19.96;42.41;101070.37;;;;-50
2020/03/19 16:08:40;;;;;;;5.98;2.51;;;;;;;20.00;42.38;101071.47;;;;-52
2020/03/19 16:11:40;;;;;;;3.36;2.31;;;;;;;20.01;42.60;101066.83;;;;-53
2020/03/19 16:14:40;;;;;;;3.55;2.13;;;;;;;20.02;42.56;101069.00;;;;-53
2020/03/19 16:17:40;;;;;;;4.27;2.45;;;;;;;20.07;42.54;101068.98;;;;-49
2020/03/19 16:20:40;;;;;;;3.19;2.17;;;;;;;20.10;42.63;101067.29;;;;-50
2020/03/19 16:23:39;;;;;;;2.63;2.27;;;;;;;20.11;42.67;101065.45;;;;-50
2020/03/19 16:26:39;;;;;;;2.77;2.16;;;;;;;20.13;42.64;101063.03;;;;-48
2020/03/19 16:29:39;;;;;;;2.50;2.30;;;;;;;20.16;42.60;101064.09;;;;-49
2020/03/19 16:32:40;;;;;;;3.07;2.39;;;;;;;20.18;42.46;101064.75;;;;-56
2020/03/19 16:35:40;;;;;;;4.13;2.43;;;;;;;20.20;42.62;101063.28;;;;-54
2020/03/19 16:38:40;;;;;;;2.79;2.17;;;;;;;20.21;42.54;101062.66;;;;-52
2020/03/19 16:41:40;;;;;;;2.77;2.31;;;;;;;20.22;42.47;101059.92;;;;-53
2020/03/19 16:44:40;;;;;;;3.60;2.30;;;;;;;20.22;42.40;101060.53;;;;-53
2020/03/19 16:47:40;;;;;;;2.62;2.29;;;;;;;20.23;42.43;101062.20;;;;-54